sensor_id;sensor_type;location;lat;lon;timestamp;temperature;humidity
78694;SHT31;68029;51.978;5.646;2023-02-24T00:00:45;5.9;67.9
78694;SHT31;68029;51.978;5.646;2023-02-24T00:03:19;5.8;68.3
78694;SHT31;68029;51.978;5.646;2023-02-24T00:05:48;5.8;68.1
78694;SHT31;68029;51.978;5.646;2023-02-24T00:08:18;5.8;68.2
78694;SHT31;68029;51.978;5.646;2023-02-24T00:10:48;5.7;68.1
78694;SHT31;68029;51.978;5.646;2023-02-24T00:13:19;5.7;68.2
78694;SHT31;68029;51.978;5.646;2023-02-24T00:15:58;5.7;68.0
78694;SHT31;68029;51.978;5.646;2023-02-24T00:18:29;5.7;68.3
78694;SHT31;68029;51.978;5.646;2023-02-24T00:21:04;5.7;67.6
78694;SHT31;68029;51.978;5.646;2023-02-24T00:23:38;5.6;67.7
78694;SHT31;68029;51.978;5.646;2023-02-24T00:26:10;5.6;67.8
78694;SHT31;68029;51.978;5.646;2023-02-24T00:28:41;5.6;67.7
78694;SHT31;68029;51.978;5.646;2023-02-24T00:31:17;5.6;67.9
78694;SHT31;68029;51.978;5.646;2023-02-24T00:33:50;5.6;67.5
78694;SHT31;68029;51.978;5.646;2023-02-24T00:36:26;5.5;67.5
78694;SHT31;68029;51.978;5.646;2023-02-24T00:38:58;5.5;67.5
78694;SHT31;68029;51.978;5.646;2023-02-24T00:41:31;5.5;67.6
78694;SHT31;68029;51.978;5.646;2023-02-24T00:44:04;5.4;67.4
78694;SHT31;68029;51.978;5.646;2023-02-24T00:46:37;5.4;67.4
78694;SHT31;68029;51.978;5.646;2023-02-24T00:49:12;5.4;67.6
78694;SHT31;68029;51.978;5.646;2023-02-24T00:51:45;5.4;67.6
78694;SHT31;68029;51.978;5.646;2023-02-24T00:54:16;5.3;67.6
78694;SHT31;68029;51.978;5.646;2023-02-24T00:56:47;5.3;67.8
78694;SHT31;68029;51.978;5.646;2023-02-24T00:59:18;5.3;68.0
78694;SHT31;68029;51.978;5.646;2023-02-24T01:01:50;5.3;68.2
78694;SHT31;68029;51.978;5.646;2023-02-24T01:04:22;5.2;67.8
78694;SHT31;68029;51.978;5.646;2023-02-24T01:06:52;5.2;67.8
78694;SHT31;68029;51.978;5.646;2023-02-24T01:09:30;5.2;67.7
78694;SHT31;68029;51.978;5.646;2023-02-24T01:12:01;5.2;67.4
78694;SHT31;68029;51.978;5.646;2023-02-24T01:14:49;5.1;67.7
78694;SHT31;68029;51.978;5.646;2023-02-24T01:17:20;5.1;67.5
78694;SHT31;68029;51.978;5.646;2023-02-24T01:19:52;5.1;67.7
78694;SHT31;68029;51.978;5.646;2023-02-24T01:22:27;5.1;67.8
78694;SHT31;68029;51.978;5.646;2023-02-24T01:24:59;5.0;67.8
78694;SHT31;68029;51.978;5.646;2023-02-24T01:27:28;5.0;67.8
78694;SHT31;68029;51.978;5.646;2023-02-24T01:29:58;5.0;67.8
78694;SHT31;68029;51.978;5.646;2023-02-24T01:32:28;5.0;67.7
78694;SHT31;68029;51.978;5.646;2023-02-24T01:34:58;5.0;67.6
78694;SHT31;68029;51.978;5.646;2023-02-24T01:37:28;4.9;67.6
78694;SHT31;68029;51.978;5.646;2023-02-24T01:39:58;4.9;67.8
78694;SHT31;68029;51.978;5.646;2023-02-24T01:42:32;4.9;67.6
78694;SHT31;68029;51.978;5.646;2023-02-24T01:45:09;4.9;67.7
78694;SHT31;68029;51.978;5.646;2023-02-24T01:47:43;4.8;67.7
78694;SHT31;68029;51.978;5.646;2023-02-24T01:50:15;4.8;67.9
78694;SHT31;68029;51.978;5.646;2023-02-24T01:52:52;4.8;68.0
78694;SHT31;68029;51.978;5.646;2023-02-24T01:55:28;4.8;67.9
78694;SHT31;68029;51.978;5.646;2023-02-24T01:58:04;4.7;68.2
78694;SHT31;68029;51.978;5.646;2023-02-24T02:00:39;4.7;68.0
78694;SHT31;68029;51.978;5.646;2023-02-24T02:03:22;4.7;67.7
78694;SHT31;68029;51.978;5.646;2023-02-24T02:05:57;4.7;67.7
78694;SHT31;68029;51.978;5.646;2023-02-24T02:08:28;4.7;67.7
78694;SHT31;68029;51.978;5.646;2023-02-24T02:11:03;4.6;67.5
78694;SHT31;68029;51.978;5.646;2023-02-24T02:13:35;4.6;67.4
78694;SHT31;68029;51.978;5.646;2023-02-24T02:16:39;4.6;67.4
78694;SHT31;68029;51.978;5.646;2023-02-24T02:19:32;4.6;67.2
78694;SHT31;68029;51.978;5.646;2023-02-24T02:22:19;4.5;67.4
78694;SHT31;68029;51.978;5.646;2023-02-24T02:25:02;4.5;67.8
78694;SHT31;68029;51.978;5.646;2023-02-24T02:28:31;4.5;67.7
78694;SHT31;68029;51.978;5.646;2023-02-24T02:31:23;4.5;67.6
78694;SHT31;68029;51.978;5.646;2023-02-24T02:34:09;4.4;67.4
78694;SHT31;68029;51.978;5.646;2023-02-24T02:36:53;4.4;67.8
78694;SHT31;68029;51.978;5.646;2023-02-24T02:39:32;4.4;67.9
78694;SHT31;68029;51.978;5.646;2023-02-24T02:42:09;4.4;67.6
78694;SHT31;68029;51.978;5.646;2023-02-24T02:44:48;4.4;67.6
78694;SHT31;68029;51.978;5.646;2023-02-24T02:47:27;4.3;68.0
78694;SHT31;68029;51.978;5.646;2023-02-24T02:50:09;4.3;67.6
78694;SHT31;68029;51.978;5.646;2023-02-24T02:52:50;4.3;68.1
78694;SHT31;68029;51.978;5.646;2023-02-24T02:55:27;4.3;67.6
78694;SHT31;68029;51.978;5.646;2023-02-24T02:58:03;4.3;68.1
78694;SHT31;68029;51.978;5.646;2023-02-24T03:00:43;4.3;67.6
78694;SHT31;68029;51.978;5.646;2023-02-24T03:03:18;4.2;67.7
78694;SHT31;68029;51.978;5.646;2023-02-24T03:05:53;4.2;68.2
78694;SHT31;68029;51.978;5.646;2023-02-24T03:08:28;4.2;67.6
78694;SHT31;68029;51.978;5.646;2023-02-24T03:11:02;4.2;68.4
78694;SHT31;68029;51.978;5.646;2023-02-24T03:13:36;4.2;68.2
78694;SHT31;68029;51.978;5.646;2023-02-24T03:16:10;4.2;67.7
78694;SHT31;68029;51.978;5.646;2023-02-24T03:18:52;4.2;68.2
78694;SHT31;68029;51.978;5.646;2023-02-24T03:21:28;4.2;68.0
78694;SHT31;68029;51.978;5.646;2023-02-24T03:24:03;4.2;68.0
78694;SHT31;68029;51.978;5.646;2023-02-24T03:26:42;4.1;67.6
78694;SHT31;68029;51.978;5.646;2023-02-24T03:29:19;4.1;67.1
78694;SHT31;68029;51.978;5.646;2023-02-24T03:31:59;4.1;66.9
78694;SHT31;68029;51.978;5.646;2023-02-24T03:34:39;4.1;67.3
78694;SHT31;68029;51.978;5.646;2023-02-24T03:37:13;4.1;67.0
78694;SHT31;68029;51.978;5.646;2023-02-24T03:39:43;4.0;67.5
78694;SHT31;68029;51.978;5.646;2023-02-24T03:42:19;4.0;68.1
78694;SHT31;68029;51.978;5.646;2023-02-24T03:44:49;4.0;67.7
78694;SHT31;68029;51.978;5.646;2023-02-24T03:47:20;4.0;67.8
78694;SHT31;68029;51.978;5.646;2023-02-24T03:49:51;4.0;67.9
78694;SHT31;68029;51.978;5.646;2023-02-24T03:52:30;4.0;67.4
78694;SHT31;68029;51.978;5.646;2023-02-24T03:55:14;4.0;67.5
78694;SHT31;68029;51.978;5.646;2023-02-24T03:57:58;4.0;67.9
78694;SHT31;68029;51.978;5.646;2023-02-24T04:00:37;4.0;68.8
78694;SHT31;68029;51.978;5.646;2023-02-24T04:03:19;4.0;68.0
78694;SHT31;68029;51.978;5.646;2023-02-24T04:06:04;4.0;68.4
78694;SHT31;68029;51.978;5.646;2023-02-24T04:08:41;4.0;68.6
78694;SHT31;68029;51.978;5.646;2023-02-24T04:11:23;4.0;68.5
78694;SHT31;68029;51.978;5.646;2023-02-24T04:14:00;4.0;68.1
78694;SHT31;68029;51.978;5.646;2023-02-24T04:16:37;4.0;68.7
78694;SHT31;68029;51.978;5.646;2023-02-24T04:19:13;4.0;69.2
78694;SHT31;68029;51.978;5.646;2023-02-24T04:21:46;4.0;69.5
78694;SHT31;68029;51.978;5.646;2023-02-24T04:24:21;4.1;68.8
78694;SHT31;68029;51.978;5.646;2023-02-24T04:26:53;4.1;69.1
78694;SHT31;68029;51.978;5.646;2023-02-24T04:29:30;4.1;68.7
78694;SHT31;68029;51.978;5.646;2023-02-24T04:32:07;4.1;68.9
78694;SHT31;68029;51.978;5.646;2023-02-24T04:34:40;4.2;68.4
78694;SHT31;68029;51.978;5.646;2023-02-24T04:37:12;4.2;68.5
78694;SHT31;68029;51.978;5.646;2023-02-24T04:39:42;4.2;68.6
78694;SHT31;68029;51.978;5.646;2023-02-24T04:42:12;4.2;68.5
78694;SHT31;68029;51.978;5.646;2023-02-24T04:44:44;4.2;69.1
78694;SHT31;68029;51.978;5.646;2023-02-24T04:47:14;4.3;68.8
78694;SHT31;68029;51.978;5.646;2023-02-24T04:49:43;4.3;68.4
78694;SHT31;68029;51.978;5.646;2023-02-24T04:52:13;4.3;68.1
78694;SHT31;68029;51.978;5.646;2023-02-24T04:54:46;4.3;68.4
78694;SHT31;68029;51.978;5.646;2023-02-24T04:57:16;4.3;67.9
78694;SHT31;68029;51.978;5.646;2023-02-24T04:59:46;4.3;68.3
78694;SHT31;68029;51.978;5.646;2023-02-24T05:02:16;4.4;67.6
78694;SHT31;68029;51.978;5.646;2023-02-24T05:04:46;4.4;67.5
78694;SHT31;68029;51.978;5.646;2023-02-24T05:07:17;4.3;67.8
78694;SHT31;68029;51.978;5.646;2023-02-24T05:09:49;4.3;79.2
78694;SHT31;68029;51.978;5.646;2023-02-24T05:12:21;4.5;87.9
78694;SHT31;68029;51.978;5.646;2023-02-24T05:14:50;5.1;83.2
78694;SHT31;68029;51.978;5.646;2023-02-24T05:17:21;6.1;71.8
78694;SHT31;68029;51.978;5.646;2023-02-24T05:19:50;6.8;67.2
78694;SHT31;68029;51.978;5.646;2023-02-24T05:22:37;7.3;63.8
78694;SHT31;68029;51.978;5.646;2023-02-24T05:25:07;7.6;62.6
78694;SHT31;68029;51.978;5.646;2023-02-24T05:27:40;7.8;60.9
78694;SHT31;68029;51.978;5.646;2023-02-24T05:30:11;8.0;60.2
78694;SHT31;68029;51.978;5.646;2023-02-24T05:32:41;8.2;59.5
78694;SHT31;68029;51.978;5.646;2023-02-24T05:35:13;8.3;58.9
78694;SHT31;68029;51.978;5.646;2023-02-24T05:37:44;8.4;58.1
78694;SHT31;68029;51.978;5.646;2023-02-24T05:40:15;8.5;58.1
78694;SHT31;68029;51.978;5.646;2023-02-24T05:42:49;8.6;57.6
78694;SHT31;68029;51.978;5.646;2023-02-24T05:45:20;8.6;57.2
78694;SHT31;68029;51.978;5.646;2023-02-24T05:47:49;8.7;56.3
78694;SHT31;68029;51.978;5.646;2023-02-24T05:50:21;8.8;56.2
78694;SHT31;68029;51.978;5.646;2023-02-24T05:52:53;8.8;55.9
78694;SHT31;68029;51.978;5.646;2023-02-24T05:55:23;8.8;55.5
78694;SHT31;68029;51.978;5.646;2023-02-24T05:57:52;8.9;54.0
78694;SHT31;68029;51.978;5.646;2023-02-24T06:00:23;8.8;53.3
78694;SHT31;68029;51.978;5.646;2023-02-24T06:02:53;8.7;53.1
78694;SHT31;68029;51.978;5.646;2023-02-24T06:05:27;8.4;54.0
78694;SHT31;68029;51.978;5.646;2023-02-24T06:07:58;8.0;54.9
78694;SHT31;68029;51.978;5.646;2023-02-24T06:10:32;7.6;56.0
78694;SHT31;68029;51.978;5.646;2023-02-24T06:13:03;7.2;57.1
78694;SHT31;68029;51.978;5.646;2023-02-24T06:15:33;6.9;58.4
78694;SHT31;68029;51.978;5.646;2023-02-24T06:18:03;6.6;59.2
78694;SHT31;68029;51.978;5.646;2023-02-24T06:20:36;6.4;60.1
78694;SHT31;68029;51.978;5.646;2023-02-24T06:23:07;6.3;60.9
78694;SHT31;68029;51.978;5.646;2023-02-24T06:25:36;6.1;61.6
78694;SHT31;68029;51.978;5.646;2023-02-24T06:28:06;6.0;62.6
78694;SHT31;68029;51.978;5.646;2023-02-24T06:30:36;5.9;63.5
78694;SHT31;68029;51.978;5.646;2023-02-24T06:33:06;5.8;63.1
78694;SHT31;68029;51.978;5.646;2023-02-24T06:35:37;5.7;63.6
78694;SHT31;68029;51.978;5.646;2023-02-24T06:38:07;5.6;63.9
78694;SHT31;68029;51.978;5.646;2023-02-24T06:40:37;5.5;64.5
78694;SHT31;68029;51.978;5.646;2023-02-24T06:43:08;5.5;65.1
78694;SHT31;68029;51.978;5.646;2023-02-24T06:45:38;5.4;68.9
78694;SHT31;68029;51.978;5.646;2023-02-24T06:48:08;5.4;66.6
78694;SHT31;68029;51.978;5.646;2023-02-24T06:50:38;5.4;66.5
78694;SHT31;68029;51.978;5.646;2023-02-24T06:53:10;5.4;66.4
78694;SHT31;68029;51.978;5.646;2023-02-24T06:55:45;5.4;67.1
78694;SHT31;68029;51.978;5.646;2023-02-24T06:58:18;5.4;67.1
78694;SHT31;68029;51.978;5.646;2023-02-24T07:00:50;5.4;66.8
78694;SHT31;68029;51.978;5.646;2023-02-24T07:03:28;5.4;67.0
78694;SHT31;68029;51.978;5.646;2023-02-24T07:06:06;5.3;66.9
78694;SHT31;68029;51.978;5.646;2023-02-24T07:08:44;5.3;67.6
78694;SHT31;68029;51.978;5.646;2023-02-24T07:11:15;5.3;67.1
78694;SHT31;68029;51.978;5.646;2023-02-24T07:13:47;5.3;67.3
78694;SHT31;68029;51.978;5.646;2023-02-24T07:16:22;5.3;67.2
78694;SHT31;68029;51.978;5.646;2023-02-24T07:18:57;5.3;66.6
78694;SHT31;68029;51.978;5.646;2023-02-24T07:21:30;5.3;66.5
78694;SHT31;68029;51.978;5.646;2023-02-24T07:24:06;5.3;67.1
78694;SHT31;68029;51.978;5.646;2023-02-24T07:26:39;5.3;67.0
78694;SHT31;68029;51.978;5.646;2023-02-24T07:29:11;5.3;67.3
78694;SHT31;68029;51.978;5.646;2023-02-24T07:31:40;5.3;67.0
78694;SHT31;68029;51.978;5.646;2023-02-24T07:34:10;5.4;67.2
78694;SHT31;68029;51.978;5.646;2023-02-24T07:36:41;5.4;67.2
78694;SHT31;68029;51.978;5.646;2023-02-24T07:39:17;5.4;66.9
78694;SHT31;68029;51.978;5.646;2023-02-24T07:41:51;5.5;67.0
78694;SHT31;68029;51.978;5.646;2023-02-24T07:44:23;5.5;67.3
78694;SHT31;68029;51.978;5.646;2023-02-24T07:46:55;5.6;66.7
78694;SHT31;68029;51.978;5.646;2023-02-24T07:49:27;5.6;66.8
78694;SHT31;68029;51.978;5.646;2023-02-24T07:51:58;5.6;67.5
78694;SHT31;68029;51.978;5.646;2023-02-24T07:54:30;5.6;67.4
78694;SHT31;68029;51.978;5.646;2023-02-24T07:57:01;5.6;67.2
78694;SHT31;68029;51.978;5.646;2023-02-24T07:59:33;5.6;67.7
78694;SHT31;68029;51.978;5.646;2023-02-24T08:02:04;5.6;68.2
78694;SHT31;68029;51.978;5.646;2023-02-24T08:04:34;5.6;68.7
78694;SHT31;68029;51.978;5.646;2023-02-24T08:07:07;5.6;68.8
78694;SHT31;68029;51.978;5.646;2023-02-24T08:09:41;5.7;68.7
78694;SHT31;68029;51.978;5.646;2023-02-24T08:12:41;5.7;68.6
78694;SHT31;68029;51.978;5.646;2023-02-24T08:15:16;5.7;68.4
78694;SHT31;68029;51.978;5.646;2023-02-24T08:17:51;5.7;68.3
78694;SHT31;68029;51.978;5.646;2023-02-24T08:20:26;5.7;68.9
78694;SHT31;68029;51.978;5.646;2023-02-24T08:22:56;5.7;69.5
78694;SHT31;68029;51.978;5.646;2023-02-24T08:25:27;5.7;69.4
78694;SHT31;68029;51.978;5.646;2023-02-24T08:28:05;5.7;69.7
78694;SHT31;68029;51.978;5.646;2023-02-24T08:30:41;5.7;70.6
78694;SHT31;68029;51.978;5.646;2023-02-24T08:33:17;5.8;70.4
78694;SHT31;68029;51.978;5.646;2023-02-24T08:35:52;5.8;70.9
78694;SHT31;68029;51.978;5.646;2023-02-24T08:38:30;5.8;70.5
78694;SHT31;68029;51.978;5.646;2023-02-24T08:41:14;5.8;70.6
78694;SHT31;68029;51.978;5.646;2023-02-24T08:43:48;5.8;70.8
78694;SHT31;68029;51.978;5.646;2023-02-24T08:46:21;5.9;70.9
78694;SHT31;68029;51.978;5.646;2023-02-24T08:48:54;5.9;71.1
78694;SHT31;68029;51.978;5.646;2023-02-24T08:51:29;5.9;71.0
78694;SHT31;68029;51.978;5.646;2023-02-24T08:54:03;5.9;71.8
78694;SHT31;68029;51.978;5.646;2023-02-24T08:56:38;6.0;71.4
78694;SHT31;68029;51.978;5.646;2023-02-24T08:59:11;6.0;71.2
78694;SHT31;68029;51.978;5.646;2023-02-24T09:01:48;6.0;70.9
78694;SHT31;68029;51.978;5.646;2023-02-24T09:04:25;6.1;71.7
78694;SHT31;68029;51.978;5.646;2023-02-24T09:06:54;6.1;71.6
78694;SHT31;68029;51.978;5.646;2023-02-24T09:09:24;6.1;71.3
78694;SHT31;68029;51.978;5.646;2023-02-24T09:11:56;6.1;71.6
78694;SHT31;68029;51.978;5.646;2023-02-24T09:14:28;6.1;71.7
78694;SHT31;68029;51.978;5.646;2023-02-24T09:17:04;6.2;71.8
78694;SHT31;68029;51.978;5.646;2023-02-24T09:19:40;6.2;71.1
78694;SHT31;68029;51.978;5.646;2023-02-24T09:22:51;6.2;71.5
78694;SHT31;68029;51.978;5.646;2023-02-24T09:25:31;6.2;72.3
78694;SHT31;68029;51.978;5.646;2023-02-24T09:28:14;6.2;72.0
78694;SHT31;68029;51.978;5.646;2023-02-24T09:30:49;6.2;71.7
78694;SHT31;68029;51.978;5.646;2023-02-24T09:33:25;6.2;72.0
78694;SHT31;68029;51.978;5.646;2023-02-24T09:35:57;6.3;72.5
78694;SHT31;68029;51.978;5.646;2023-02-24T09:38:37;6.3;72.4
78694;SHT31;68029;51.978;5.646;2023-02-24T09:41:29;6.3;72.4
78694;SHT31;68029;51.978;5.646;2023-02-24T09:44:05;6.3;73.2
78694;SHT31;68029;51.978;5.646;2023-02-24T09:49:38;6.4;72.9
78694;SHT31;68029;51.978;5.646;2023-02-24T09:52:10;6.5;73.6
78694;SHT31;68029;51.978;5.646;2023-02-24T09:54:45;6.5;73.1
78694;SHT31;68029;51.978;5.646;2023-02-24T09:57:40;6.6;72.7
78694;SHT31;68029;51.978;5.646;2023-02-24T10:00:22;6.6;72.6
78694;SHT31;68029;51.978;5.646;2023-02-24T10:03:10;6.7;72.4
78694;SHT31;68029;51.978;5.646;2023-02-24T10:05:57;6.7;72.6
78694;SHT31;68029;51.978;5.646;2023-02-24T10:08:39;6.8;72.7
78694;SHT31;68029;51.978;5.646;2023-02-24T10:11:11;6.8;72.1
78694;SHT31;68029;51.978;5.646;2023-02-24T10:13:47;6.9;72.4
78694;SHT31;68029;51.978;5.646;2023-02-24T10:16:22;6.9;73.0
78694;SHT31;68029;51.978;5.646;2023-02-24T10:19:02;7.0;72.7
78694;SHT31;68029;51.978;5.646;2023-02-24T10:21:47;7.0;72.5
78694;SHT31;68029;51.978;5.646;2023-02-24T10:24:28;7.1;72.7
78694;SHT31;68029;51.978;5.646;2023-02-24T10:27:07;7.1;72.5
78694;SHT31;68029;51.978;5.646;2023-02-24T10:29:51;7.1;73.2
78694;SHT31;68029;51.978;5.646;2023-02-24T10:32:36;7.1;72.5
78694;SHT31;68029;51.978;5.646;2023-02-24T10:35:12;7.1;73.0
78694;SHT31;68029;51.978;5.646;2023-02-24T10:37:43;7.1;73.3
78694;SHT31;68029;51.978;5.646;2023-02-24T10:40:14;7.1;73.9
78694;SHT31;68029;51.978;5.646;2023-02-24T10:43:01;7.1;74.1
78694;SHT31;68029;51.978;5.646;2023-02-24T10:45:30;7.1;74.9
78694;SHT31;68029;51.978;5.646;2023-02-24T10:48:06;7.1;74.6
78694;SHT31;68029;51.978;5.646;2023-02-24T10:50:41;7.1;75.3
78694;SHT31;68029;51.978;5.646;2023-02-24T10:53:14;7.1;75.3
78694;SHT31;68029;51.978;5.646;2023-02-24T10:56:03;7.1;76.1
78694;SHT31;68029;51.978;5.646;2023-02-24T11:00:28;7.1;76.4
78694;SHT31;68029;51.978;5.646;2023-02-24T11:03:09;7.1;76.2
78694;SHT31;68029;51.978;5.646;2023-02-24T11:05:43;7.1;76.6
78694;SHT31;68029;51.978;5.646;2023-02-24T11:08:20;7.1;77.0
78694;SHT31;68029;51.978;5.646;2023-02-24T11:11:15;7.1;77.1
78694;SHT31;68029;51.978;5.646;2023-02-24T11:13:53;7.1;77.2
78694;SHT31;68029;51.978;5.646;2023-02-24T11:16:49;7.2;77.1
78694;SHT31;68029;51.978;5.646;2023-02-24T11:19:46;7.2;77.2
78694;SHT31;68029;51.978;5.646;2023-02-24T11:22:22;7.2;77.6
78694;SHT31;68029;51.978;5.646;2023-02-24T11:24:55;7.2;77.2
78694;SHT31;68029;51.978;5.646;2023-02-24T11:27:26;7.2;77.0
78694;SHT31;68029;51.978;5.646;2023-02-24T11:30:11;7.2;77.2
78694;SHT31;68029;51.978;5.646;2023-02-24T11:33:06;7.2;77.1
78694;SHT31;68029;51.978;5.646;2023-02-24T11:35:43;7.3;77.6
78694;SHT31;68029;51.978;5.646;2023-02-24T11:38:28;7.3;77.8
78694;SHT31;68029;51.978;5.646;2023-02-24T11:41:04;7.3;77.5
78694;SHT31;68029;51.978;5.646;2023-02-24T11:43:42;7.3;78.0
78694;SHT31;68029;51.978;5.646;2023-02-24T11:46:18;7.3;78.1
78694;SHT31;68029;51.978;5.646;2023-02-24T11:48:53;7.3;77.9
78694;SHT31;68029;51.978;5.646;2023-02-24T11:51:28;7.3;78.2
78694;SHT31;68029;51.978;5.646;2023-02-24T11:54:03;7.3;78.7
78694;SHT31;68029;51.978;5.646;2023-02-24T11:56:39;7.4;79.0
78694;SHT31;68029;51.978;5.646;2023-02-24T11:59:16;7.4;79.2
78694;SHT31;68029;51.978;5.646;2023-02-24T12:01:54;7.4;78.6
78694;SHT31;68029;51.978;5.646;2023-02-24T12:04:28;7.4;78.7
78694;SHT31;68029;51.978;5.646;2023-02-24T12:07:05;7.4;78.7
78694;SHT31;68029;51.978;5.646;2023-02-24T12:09:42;7.4;79.1
78694;SHT31;68029;51.978;5.646;2023-02-24T12:12:19;7.5;79.3
78694;SHT31;68029;51.978;5.646;2023-02-24T12:14:54;7.5;79.5
78694;SHT31;68029;51.978;5.646;2023-02-24T12:17:32;7.5;79.8
78694;SHT31;68029;51.978;5.646;2023-02-24T12:20:08;7.5;80.0
78694;SHT31;68029;51.978;5.646;2023-02-24T12:22:49;7.6;80.0
78694;SHT31;68029;51.978;5.646;2023-02-24T12:25:26;7.6;79.9
78694;SHT31;68029;51.978;5.646;2023-02-24T12:28:06;7.6;79.8
78694;SHT31;68029;51.978;5.646;2023-02-24T12:30:53;7.7;79.9
78694;SHT31;68029;51.978;5.646;2023-02-24T12:33:40;7.7;79.8
78694;SHT31;68029;51.978;5.646;2023-02-24T12:36:19;7.7;79.9
78694;SHT31;68029;51.978;5.646;2023-02-24T12:39:01;7.8;79.9
78694;SHT31;68029;51.978;5.646;2023-02-24T12:42:00;7.8;80.2
78694;SHT31;68029;51.978;5.646;2023-02-24T12:44:42;7.9;80.5
78694;SHT31;68029;51.978;5.646;2023-02-24T12:47:16;7.9;82.2
78694;SHT31;68029;51.978;5.646;2023-02-24T12:50:03;8.1;84.3
78694;SHT31;68029;51.978;5.646;2023-02-24T12:52:45;8.4;83.7
78694;SHT31;68029;51.978;5.646;2023-02-24T12:55:23;8.8;81.6
78694;SHT31;68029;51.978;5.646;2023-02-24T12:58:01;9.2;79.2
78694;SHT31;68029;51.978;5.646;2023-02-24T13:00:43;9.4;76.6
78694;SHT31;68029;51.978;5.646;2023-02-24T13:03:24;9.6;75.5
78694;SHT31;68029;51.978;5.646;2023-02-24T13:06:04;9.7;74.9
78694;SHT31;68029;51.978;5.646;2023-02-24T13:08:49;9.7;74.9
78694;SHT31;68029;51.978;5.646;2023-02-24T13:11:28;9.8;74.5
78694;SHT31;68029;51.978;5.646;2023-02-24T13:14:05;9.8;75.1
78694;SHT31;68029;51.978;5.646;2023-02-24T13:16:39;9.8;76.9
78694;SHT31;68029;51.978;5.646;2023-02-24T13:19:19;10.0;77.9
78694;SHT31;68029;51.978;5.646;2023-02-24T13:22:00;10.3;77.8
78694;SHT31;68029;51.978;5.646;2023-02-24T13:24:33;10.7;75.4
78694;SHT31;68029;51.978;5.646;2023-02-24T13:27:20;11.1;74.1
78694;SHT31;68029;51.978;5.646;2023-02-24T13:29:52;11.6;70.0
78694;SHT31;68029;51.978;5.646;2023-02-24T13:32:28;11.9;70.3
78694;SHT31;68029;51.978;5.646;2023-02-24T13:35:02;12.1;68.3
78694;SHT31;68029;51.978;5.646;2023-02-24T13:37:35;12.2;66.7
78694;SHT31;68029;51.978;5.646;2023-02-24T13:40:22;12.3;66.3
78694;SHT31;68029;51.978;5.646;2023-02-24T13:42:59;12.4;66.7
78694;SHT31;68029;51.978;5.646;2023-02-24T13:45:32;12.5;64.9
78694;SHT31;68029;51.978;5.646;2023-02-24T13:48:38;12.5;65.4
78694;SHT31;68029;51.978;5.646;2023-02-24T13:51:35;12.6;64.5
78694;SHT31;68029;51.978;5.646;2023-02-24T13:54:30;12.8;63.2
78694;SHT31;68029;51.978;5.646;2023-02-24T13:57:21;12.9;61.6
78694;SHT31;68029;51.978;5.646;2023-02-24T13:59:54;13.0;61.6
78694;SHT31;68029;51.978;5.646;2023-02-24T14:02:29;13.0;59.5
78694;SHT31;68029;51.978;5.646;2023-02-24T14:05:09;13.0;58.3
78694;SHT31;68029;51.978;5.646;2023-02-24T14:07:41;12.9;59.0
78694;SHT31;68029;51.978;5.646;2023-02-24T14:10:17;12.8;58.9
78694;SHT31;68029;51.978;5.646;2023-02-24T14:13:00;12.6;59.4
78694;SHT31;68029;51.978;5.646;2023-02-24T14:15:32;12.3;59.6
78694;SHT31;68029;51.978;5.646;2023-02-24T14:18:04;12.0;60.4
78694;SHT31;68029;51.978;5.646;2023-02-24T14:20:34;11.6;60.5
78694;SHT31;68029;51.978;5.646;2023-02-24T14:23:20;11.3;61.4
78694;SHT31;68029;51.978;5.646;2023-02-24T14:25:55;11.0;63.4
78694;SHT31;68029;51.978;5.646;2023-02-24T14:28:28;10.8;64.6
78694;SHT31;68029;51.978;5.646;2023-02-24T14:31:06;10.7;66.1
78694;SHT31;68029;51.978;5.646;2023-02-24T14:33:39;10.7;66.3
78694;SHT31;68029;51.978;5.646;2023-02-24T14:36:17;10.6;65.4
78694;SHT31;68029;51.978;5.646;2023-02-24T14:39:05;10.6;65.1
78694;SHT31;68029;51.978;5.646;2023-02-24T14:41:36;10.5;65.7
78694;SHT31;68029;51.978;5.646;2023-02-24T14:44:10;10.5;67.2
78694;SHT31;68029;51.978;5.646;2023-02-24T14:46:51;10.4;66.7
78694;SHT31;68029;51.978;5.646;2023-02-24T14:49:24;10.4;67.6
78694;SHT31;68029;51.978;5.646;2023-02-24T14:52:01;10.5;67.4
78694;SHT31;68029;51.978;5.646;2023-02-24T14:54:42;10.5;67.3
78694;SHT31;68029;51.978;5.646;2023-02-24T14:57:18;10.6;68.3
78694;SHT31;68029;51.978;5.646;2023-02-24T14:59:55;10.8;67.5
78694;SHT31;68029;51.978;5.646;2023-02-24T15:02:31;11.0;66.6
78694;SHT31;68029;51.978;5.646;2023-02-24T15:05:05;11.1;66.0
78694;SHT31;68029;51.978;5.646;2023-02-24T15:07:36;11.1;65.5
78694;SHT31;68029;51.978;5.646;2023-02-24T15:10:20;11.2;65.3
78694;SHT31;68029;51.978;5.646;2023-02-24T15:12:55;11.3;65.3
78694;SHT31;68029;51.978;5.646;2023-02-24T15:15:28;11.4;64.4
78694;SHT31;68029;51.978;5.646;2023-02-24T15:18:13;11.6;64.1
78694;SHT31;68029;51.978;5.646;2023-02-24T15:20:38;11.7;63.1
78694;SHT31;68029;51.978;5.646;2023-02-24T15:23:24;11.8;61.8
78694;SHT31;68029;51.978;5.646;2023-02-24T15:25:57;11.8;60.4
78694;SHT31;68029;51.978;5.646;2023-02-24T15:28:29;11.7;59.2
78694;SHT31;68029;51.978;5.646;2023-02-24T15:31:02;11.6;59.2
78694;SHT31;68029;51.978;5.646;2023-02-24T15:33:36;11.5;59.7
78694;SHT31;68029;51.978;5.646;2023-02-24T15:36:14;11.4;60.4
78694;SHT31;68029;51.978;5.646;2023-02-24T15:38:49;11.4;61.4
78694;SHT31;68029;51.978;5.646;2023-02-24T15:41:19;11.3;60.7
78694;SHT31;68029;51.978;5.646;2023-02-24T15:43:51;11.3;60.8
78694;SHT31;68029;51.978;5.646;2023-02-24T15:46:28;11.3;60.0
78694;SHT31;68029;51.978;5.646;2023-02-24T15:48:58;11.3;59.5
78694;SHT31;68029;51.978;5.646;2023-02-24T15:51:34;11.3;59.7
78694;SHT31;68029;51.978;5.646;2023-02-24T15:54:07;11.3;59.0
78694;SHT31;68029;51.978;5.646;2023-02-24T15:56:40;11.3;59.4
78694;SHT31;68029;51.978;5.646;2023-02-24T15:59:13;11.3;59.7
78694;SHT31;68029;51.978;5.646;2023-02-24T16:01:43;11.2;59.5
78694;SHT31;68029;51.978;5.646;2023-02-24T16:04:13;11.1;60.1
78694;SHT31;68029;51.978;5.646;2023-02-24T16:06:45;11.1;60.6
78694;SHT31;68029;51.978;5.646;2023-02-24T16:09:27;11.1;60.9
78694;SHT31;68029;51.978;5.646;2023-02-24T16:12:01;11.1;61.7
78694;SHT31;68029;51.978;5.646;2023-02-24T16:14:32;11.0;60.7
78694;SHT31;68029;51.978;5.646;2023-02-24T16:17:06;11.0;61.6
78694;SHT31;68029;51.978;5.646;2023-02-24T16:19:37;10.9;62.5
78694;SHT31;68029;51.978;5.646;2023-02-24T16:22:08;10.8;63.2
78694;SHT31;68029;51.978;5.646;2023-02-24T16:24:37;10.7;63.9
78694;SHT31;68029;51.978;5.646;2023-02-24T16:27:16;10.6;64.1
78694;SHT31;68029;51.978;5.646;2023-02-24T16:29:47;10.5;64.7
78694;SHT31;68029;51.978;5.646;2023-02-24T16:32:18;10.3;65.0
78694;SHT31;68029;51.978;5.646;2023-02-24T16:34:52;10.2;65.8
78694;SHT31;68029;51.978;5.646;2023-02-24T16:37:26;10.2;65.0
78694;SHT31;68029;51.978;5.646;2023-02-24T16:39:57;10.1;65.1
78694;SHT31;68029;51.978;5.646;2023-02-24T16:42:27;10.0;65.1
78694;SHT31;68029;51.978;5.646;2023-02-24T16:44:57;9.9;65.7
78694;SHT31;68029;51.978;5.646;2023-02-24T16:47:26;9.8;66.2
78694;SHT31;68029;51.978;5.646;2023-02-24T16:49:56;9.7;66.9
78694;SHT31;68029;51.978;5.646;2023-02-24T16:52:26;9.6;68.2
78694;SHT31;68029;51.978;5.646;2023-02-24T16:54:58;9.6;67.8
78694;SHT31;68029;51.978;5.646;2023-02-24T16:57:28;9.5;65.8
78694;SHT31;68029;51.978;5.646;2023-02-24T16:59:58;9.4;66.5
78694;SHT31;68029;51.978;5.646;2023-02-24T17:02:27;9.3;66.8
78694;SHT31;68029;51.978;5.646;2023-02-24T17:04:57;9.2;67.9
78694;SHT31;68029;51.978;5.646;2023-02-24T17:07:26;9.1;67.8
78694;SHT31;68029;51.978;5.646;2023-02-24T17:09:56;9.1;67.2
78694;SHT31;68029;51.978;5.646;2023-02-24T17:12:25;9.0;67.9
78694;SHT31;68029;51.978;5.646;2023-02-24T17:14:55;8.9;68.1